sensor_id;sensor_type;location;lat;lon;timestamp;pressure;altitude;pressure_sealevel;temperature;humidity
68489;BME280;55481;48.764;8.936;2023-03-16T00:01:23;97380;;;-1;82
68489;BME280;55481;48.764;8.936;2023-03-16T00:03:47;97370;;;-1.1;82
68489;BME280;55481;48.764;8.936;2023-03-16T00:06:19;97370;;;-1.3;82.5
68489;BME280;55481;48.764;8.936;2023-03-16T00:08:49;97370;;;-1.3;82.5
68489;BME280;55481;48.764;8.936;2023-03-16T00:16:15;97380;;;-1.3;82.5
68489;BME280;55481;48.764;8.936;2023-03-16T00:18:46;97380;;;-1.4;82.5
68489;BME280;55481;48.764;8.936;2023-03-16T00:21:16;97380;;;-1.4;82.5
68489;BME280;55481;48.764;8.936;2023-03-16T00:23:47;97370;;;-1.4;82.5
68489;BME280;55481;48.764;8.936;2023-03-16T00:26:21;97370;;;-1.4;82.5
68489;BME280;55481;48.764;8.936;2023-03-16T00:28:49;97370;;;-1.2;82.5
68489;BME280;55481;48.764;8.936;2023-03-16T00:31:20;97380;;;-1.2;82
68489;BME280;55481;48.764;8.936;2023-03-16T00:33:50;97380;;;-1.3;82.5
68489;BME280;55481;48.764;8.936;2023-03-16T00:36:22;97370;;;-1.4;82.5
68489;BME280;55481;48.764;8.936;2023-03-16T00:38:58;97380;;;-1.2;82.5
68489;BME280;55481;48.764;8.936;2023-03-16T00:41:36;97380;;;-1.2;82
68489;BME280;55481;48.764;8.936;2023-03-16T00:44:07;97380;;;-1.4;82
68489;BME280;55481;48.764;8.936;2023-03-16T00:46:32;97380;;;-1.6;82.5
68489;BME280;55481;48.764;8.936;2023-03-16T00:49:03;97380;;;-1.5;83
68489;BME280;55481;48.764;8.936;2023-03-16T00:53:57;97370;;;-1.6;82.5
68489;BME280;55481;48.764;8.936;2023-03-16T00:56:28;97370;;;-1.7;82.5
68489;BME280;55481;48.764;8.936;2023-03-16T00:58:58;97360;;;-1.6;82.5
68489;BME280;55481;48.764;8.936;2023-03-16T01:04:00;97360;;;-1.4;82
68489;BME280;55481;48.764;8.936;2023-03-16T01:09:02;97350;;;-1.6;82
68489;BME280;55481;48.764;8.936;2023-03-16T01:14:03;97360;;;-1.6;82.5
68489;BME280;55481;48.764;8.936;2023-03-16T01:16:40;97360;;;-1.5;82.5
68489;BME280;55481;48.764;8.936;2023-03-16T01:19:13;97360;;;-1.5;82.5
68489;BME280;55481;48.764;8.936;2023-03-16T01:24:07;97360;;;-1.6;82.5
68489;BME280;55481;48.764;8.936;2023-03-16T01:26:38;97350;;;-1.6;82.5
68489;BME280;55481;48.764;8.936;2023-03-16T01:29:08;97350;;;-1.6;82.5
68489;BME280;55481;48.764;8.936;2023-03-16T01:31:39;97360;;;-1.6;82.5
68489;BME280;55481;48.764;8.936;2023-03-16T01:34:10;97350;;;-1.5;82.5
68489;BME280;55481;48.764;8.936;2023-03-16T01:36:41;97350;;;-1.4;82
68489;BME280;55481;48.764;8.936;2023-03-16T01:39:14;97350;;;-1.5;82
68489;BME280;55481;48.764;8.936;2023-03-16T01:41:42;97340;;;-1.5;82
68489;BME280;55481;48.764;8.936;2023-03-16T01:44:17;97350;;;-1.5;82
68489;BME280;55481;48.764;8.936;2023-03-16T01:46:44;97340;;;-1.6;82
68489;BME280;55481;48.764;8.936;2023-03-16T01:59:24;97340;;;-1.6;82.5
68489;BME280;55481;48.764;8.936;2023-03-16T02:01:54;97340;;;-1.6;82
68489;BME280;55481;48.764;8.936;2023-03-16T02:06:49;97330;;;-1.5;82
68489;BME280;55481;48.764;8.936;2023-03-16T02:09:20;97330;;;-1.6;82
68489;BME280;55481;48.764;8.936;2023-03-16T02:11:52;97330;;;-1.6;82
68489;BME280;55481;48.764;8.936;2023-03-16T02:14:22;97320;;;-1.6;82
68489;BME280;55481;48.764;8.936;2023-03-16T02:21:58;97320;;;-1.7;82
68489;BME280;55481;48.764;8.936;2023-03-16T02:27:03;97330;;;-1.5;82
68489;BME280;55481;48.764;8.936;2023-03-16T02:29:51;97320;;;-1.5;81.5
68489;BME280;55481;48.764;8.936;2023-03-16T02:32:04;97320;;;-1.8;81.5
68489;BME280;55481;48.764;8.936;2023-03-16T02:36:57;97330;;;-1.9;82
68489;BME280;55481;48.764;8.936;2023-03-16T02:39:28;97330;;;-2.2;82.5
68489;BME280;55481;48.764;8.936;2023-03-16T02:49:33;97320;;;-2;82.5
68489;BME280;55481;48.764;8.936;2023-03-16T02:52:03;97310;;;-2.2;82.5
68489;BME280;55481;48.764;8.936;2023-03-16T02:57:16;97300;;;-1.9;82.5
68489;BME280;55481;48.764;8.936;2023-03-16T02:59:47;97300;;;-2.1;82.5
68489;BME280;55481;48.764;8.936;2023-03-16T03:02:18;97300;;;-2;82.5
68489;BME280;55481;48.764;8.936;2023-03-16T03:04:41;97310;;;-1.9;82
68489;BME280;55481;48.764;8.936;2023-03-16T03:07:12;97310;;;-2;82
68489;BME280;55481;48.764;8.936;2023-03-16T03:09:42;97300;;;-2.1;82.5
68489;BME280;55481;48.764;8.936;2023-03-16T03:12:13;97290;;;-1.9;82.5
68489;BME280;55481;48.764;8.936;2023-03-16T03:14:51;97290;;;-1.9;82
68489;BME280;55481;48.764;8.936;2023-03-16T03:19:47;97300;;;-1.9;82.5
68489;BME280;55481;48.764;8.936;2023-03-16T03:22:18;97300;;;-1.9;82.5
68489;BME280;55481;48.764;8.936;2023-03-16T03:24:49;97300;;;-1.9;82
68489;BME280;55481;48.764;8.936;2023-03-16T03:27:19;97290;;;-2;82.5
68489;BME280;55481;48.764;8.936;2023-03-16T03:29:50;97290;;;-2;82.5
68489;BME280;55481;48.764;8.936;2023-03-16T03:32:22;97280;;;-2;82.5
68489;BME280;55481;48.764;8.936;2023-03-16T03:34:52;97280;;;-1.9;82.5
68489;BME280;55481;48.764;8.936;2023-03-16T03:37:24;97280;;;-1.8;82.5
68489;BME280;55481;48.764;8.936;2023-03-16T03:39:54;97280;;;-1.8;82
68489;BME280;55481;48.764;8.936;2023-03-16T03:42:32;97280;;;-1.7;82
68489;BME280;55481;48.764;8.936;2023-03-16T03:50:04;97280;;;-1.9;82
68489;BME280;55481;48.764;8.936;2023-03-16T03:55:05;97270;;;-1.9;82.5
68489;BME280;55481;48.764;8.936;2023-03-16T03:57:35;97270;;;-2;82.5
68489;BME280;55481;48.764;8.936;2023-03-16T04:00:23;97270;;;-1.9;82.5
68489;BME280;55481;48.764;8.936;2023-03-16T04:02:35;97270;;;-1.9;82
68489;BME280;55481;48.764;8.936;2023-03-16T04:04:58;97270;;;-1.9;82.5
68489;BME280;55481;48.764;8.936;2023-03-16T04:07:36;97270;;;-1.8;82
68489;BME280;55481;48.764;8.936;2023-03-16T04:10:07;97280;;;-1.9;82
68489;BME280;55481;48.764;8.936;2023-03-16T04:17:39;97270;;;-2;82.5
68489;BME280;55481;48.764;8.936;2023-03-16T04:20:09;97270;;;-1.9;82
68489;BME280;55481;48.764;8.936;2023-03-16T04:25:03;97260;;;-1.9;82
68489;BME280;55481;48.764;8.936;2023-03-16T04:27:34;97270;;;-1.9;82
68489;BME280;55481;48.764;8.936;2023-03-16T04:30:12;97260;;;-1.9;81.5
68489;BME280;55481;48.764;8.936;2023-03-16T04:32:44;97270;;;-1.9;81.5
68489;BME280;55481;48.764;8.936;2023-03-16T04:35:13;97260;;;-1.8;81.5
68489;BME280;55481;48.764;8.936;2023-03-16T04:37:44;97260;;;-1.8;82
68489;BME280;55481;48.764;8.936;2023-03-16T04:45:17;97260;;;-2;82
68489;BME280;55481;48.764;8.936;2023-03-16T04:47:48;97260;;;-1.9;82
68489;BME280;55481;48.764;8.936;2023-03-16T04:50:17;97260;;;-1.8;82
68489;BME280;55481;48.764;8.936;2023-03-16T04:55:17;97260;;;-2;82
68489;BME280;55481;48.764;8.936;2023-03-16T05:00:13;97250;;;-2.1;82.5
68489;BME280;55481;48.764;8.936;2023-03-16T05:02:46;97250;;;-2;82.5
68489;BME280;55481;48.764;8.936;2023-03-16T05:05:15;97250;;;-2;82
68489;BME280;55481;48.764;8.936;2023-03-16T05:07:53;97250;;;-2.2;82
68489;BME280;55481;48.764;8.936;2023-03-16T05:10:23;97250;;;-2.2;82.5
68489;BME280;55481;48.764;8.936;2023-03-16T05:12:48;97250;;;-2.2;82.5
68489;BME280;55481;48.764;8.936;2023-03-16T05:15:19;97250;;;-2.1;82.5
68489;BME280;55481;48.764;8.936;2023-03-16T05:17:50;97250;;;-2.1;82.5
68489;BME280;55481;48.764;8.936;2023-03-16T05:20:21;97250;;;-2.2;82.5
68489;BME280;55481;48.764;8.936;2023-03-16T05:22:58;97250;;;-2.3;82.5
68489;BME280;55481;48.764;8.936;2023-03-16T05:25:29;97250;;;-2.2;82.5
68489;BME280;55481;48.764;8.936;2023-03-16T05:30:25;97250;;;-2.2;82
68489;BME280;55481;48.764;8.936;2023-03-16T05:32:56;97240;;;-2.2;82.5
68489;BME280;55481;48.764;8.936;2023-03-16T05:35:27;97240;;;-2.2;82.5
68489;BME280;55481;48.764;8.936;2023-03-16T05:37:58;97240;;;-2.2;82.5
68489;BME280;55481;48.764;8.936;2023-03-16T05:40:29;97240;;;-2.2;82.5
68489;BME280;55481;48.764;8.936;2023-03-16T05:43:00;97240;;;-2.1;82.5
68489;BME280;55481;48.764;8.936;2023-03-16T05:48:02;97240;;;-2;82.5
68489;BME280;55481;48.764;8.936;2023-03-16T05:50:32;97240;;;-1.9;82
68489;BME280;55481;48.764;8.936;2023-03-16T05:53:10;97240;;;-1.9;82
68489;BME280;55481;48.764;8.936;2023-03-16T06:00:42;97220;;;-1.9;82
68489;BME280;55481;48.764;8.936;2023-03-16T06:03:12;97230;;;-1.8;81.5
68489;BME280;55481;48.764;8.936;2023-03-16T06:08:13;97220;;;-1.8;81.5
68489;BME280;55481;48.764;8.936;2023-03-16T06:10:45;97220;;;-1.8;82
68489;BME280;55481;48.764;8.936;2023-03-16T06:13:13;97230;;;-1.7;82
68489;BME280;55481;48.764;8.936;2023-03-16T06:15:43;97220;;;-1.6;82
68489;BME280;55481;48.764;8.936;2023-03-16T06:23:08;97230;;;-1.5;82
68489;BME280;55481;48.764;8.936;2023-03-16T06:25:39;97230;;;-1.5;82
68489;BME280;55481;48.764;8.936;2023-03-16T06:28:10;97240;;;-1.4;82
68489;BME280;55481;48.764;8.936;2023-03-16T06:30:41;97240;;;-1.3;82
68489;BME280;55481;48.764;8.936;2023-03-16T06:33:12;97240;;;-1.2;82
68489;BME280;55481;48.764;8.936;2023-03-16T06:35:43;97230;;;-1.1;82
68489;BME280;55481;48.764;8.936;2023-03-16T06:40:44;97230;;;-0.8;81.5
68489;BME280;55481;48.764;8.936;2023-03-16T06:43:15;97230;;;-0.7;81
68489;BME280;55481;48.764;8.936;2023-03-16T06:45:53;97230;;;-0.6;81.5
68489;BME280;55481;48.764;8.936;2023-03-16T06:53:38;97240;;;-0.2;81
68489;BME280;55481;48.764;8.936;2023-03-16T06:55:55;97240;;;-0.2;81
68489;BME280;55481;48.764;8.936;2023-03-16T07:00:50;97240;;;0;80.5
68489;BME280;55481;48.764;8.936;2023-03-16T07:03:27;97230;;;0.1;80.5
68489;BME280;55481;48.764;8.936;2023-03-16T07:05:52;97240;;;0.2;80.5
68489;BME280;55481;48.764;8.936;2023-03-16T07:08:15;97230;;;0.3;80.5
68489;BME280;55481;48.764;8.936;2023-03-16T07:15:50;97230;;;0.8;80.5
68489;BME280;55481;48.764;8.936;2023-03-16T07:18:19;97230;;;1.1;80
68489;BME280;55481;48.764;8.936;2023-03-16T07:20:49;97240;;;1.3;79.5
68489;BME280;55481;48.764;8.936;2023-03-16T07:23:20;97230;;;1.5;79.5
68489;BME280;55481;48.764;8.936;2023-03-16T07:25:51;97230;;;1.6;79
68489;BME280;55481;48.764;8.936;2023-03-16T07:31:05;97240;;;1.9;79.5
68489;BME280;55481;48.764;8.936;2023-03-16T07:33:30;97240;;;2.1;79
68489;BME280;55481;48.764;8.936;2023-03-16T07:36:00;97230;;;2.4;79
68489;BME280;55481;48.764;8.936;2023-03-16T07:38:31;97230;;;2.8;78.5
68489;BME280;55481;48.764;8.936;2023-03-16T07:45:57;97230;;;3.1;79
68489;BME280;55481;48.764;8.936;2023-03-16T07:48:27;97230;;;3.2;79
68489;BME280;55481;48.764;8.936;2023-03-16T07:51:00;97220;;;3.2;79
68489;BME280;55481;48.764;8.936;2023-03-16T07:53:29;97220;;;3.4;79
68489;BME280;55481;48.764;8.936;2023-03-16T07:56:00;97220;;;3.5;79
68489;BME280;55481;48.764;8.936;2023-03-16T07:58:37;97230;;;3.8;78.5
68489;BME280;55481;48.764;8.936;2023-03-16T08:01:08;97230;;;3.8;79
68489;BME280;55481;48.764;8.936;2023-03-16T08:06:03;97220;;;3.9;79.5
68489;BME280;55481;48.764;8.936;2023-03-16T08:13:36;97220;;;4.9;78
68489;BME280;55481;48.764;8.936;2023-03-16T08:16:06;97220;;;4.7;78.5
68489;BME280;55481;48.764;8.936;2023-03-16T08:18:37;97230;;;4.6;79.5
68489;BME280;55481;48.764;8.936;2023-03-16T08:21:08;97230;;;4.9;79
68489;BME280;55481;48.764;8.936;2023-03-16T08:26:16;97210;;;4.9;79.5
68489;BME280;55481;48.764;8.936;2023-03-16T08:28:46;97210;;;5;79.5
68489;BME280;55481;48.764;8.936;2023-03-16T08:33:42;97200;;;5.3;79.5
68489;BME280;55481;48.764;8.936;2023-03-16T08:36:26;97200;;;5.2;79
68489;BME280;55481;48.764;8.936;2023-03-16T08:38:56;97190;;;5;80.5
68489;BME280;55481;48.764;8.936;2023-03-16T08:41:26;97190;;;5.5;80
68489;BME280;55481;48.764;8.936;2023-03-16T08:43:57;97180;;;6;79
68489;BME280;55481;48.764;8.936;2023-03-16T08:48:52;97180;;;5.8;79.5
68489;BME280;55481;48.764;8.936;2023-03-16T08:51:23;97170;;;6.2;79.5
68489;BME280;55481;48.764;8.936;2023-03-16T08:56:31;97180;;;6.2;79.5
68489;BME280;55481;48.764;8.936;2023-03-16T08:59:01;97180;;;6.6;79
68489;BME280;55481;48.764;8.936;2023-03-16T09:01:25;97180;;;6.3;79
68489;BME280;55481;48.764;8.936;2023-03-16T09:03:55;97190;;;6.1;80
68489;BME280;55481;48.764;8.936;2023-03-16T09:06:26;97180;;;6.2;80
68489;BME280;55481;48.764;8.936;2023-03-16T09:09:04;97170;;;6.1;80
68489;BME280;55481;48.764;8.936;2023-03-16T09:11:35;97170;;;6.5;80
68489;BME280;55481;48.764;8.936;2023-03-16T09:16:30;97160;;;6.9;79
68489;BME280;55481;48.764;8.936;2023-03-16T09:19:02;97150;;;7.3;78.5
68489;BME280;55481;48.764;8.936;2023-03-16T09:21:33;97160;;;7.4;78.5
68489;BME280;55481;48.764;8.936;2023-03-16T09:24:04;97170;;;7.7;78
68489;BME280;55481;48.764;8.936;2023-03-16T09:26:35;97170;;;7.7;78
68489;BME280;55481;48.764;8.936;2023-03-16T09:31:36;97160;;;8.4;77
68489;BME280;55481;48.764;8.936;2023-03-16T09:34:07;97160;;;8.1;77
68489;BME280;55481;48.764;8.936;2023-03-16T09:36:38;97160;;;7.5;79.5
68489;BME280;55481;48.764;8.936;2023-03-16T09:39:15;97150;;;7.9;78.5
68489;BME280;55481;48.764;8.936;2023-03-16T09:41:48;97130;;;8.1;79
68489;BME280;55481;48.764;8.936;2023-03-16T09:45:16;97140;;;8.3;78
68489;BME280;55481;48.764;8.936;2023-03-16T09:46:43;97140;;;7.9;78.5
68489;BME280;55481;48.764;8.936;2023-03-16T09:49:15;97130;;;7.9;79.5
68489;BME280;55481;48.764;8.936;2023-03-16T09:54:12;97120;;;8.3;79
68489;BME280;55481;48.764;8.936;2023-03-16T09:56:39;97130;;;8.6;78
68489;BME280;55481;48.764;8.936;2023-03-16T09:59:10;97130;;;8.4;79
68489;BME280;55481;48.764;8.936;2023-03-16T10:09:18;97130;;;8.5;79
68489;BME280;55481;48.764;8.936;2023-03-16T10:14:42;97130;;;9;78
68489;BME280;55481;48.764;8.936;2023-03-16T10:17:00;97130;;;9.4;77.5
68489;BME280;55481;48.764;8.936;2023-03-16T10:19:42;97120;;;9.2;77
68489;BME280;55481;48.764;8.936;2023-03-16T10:21:52;97120;;;9;78.5
68489;BME280;55481;48.764;8.936;2023-03-16T10:24:26;97120;;;9;78
68489;BME280;55481;48.764;8.936;2023-03-16T10:26:54;97120;;;8.8;79
68489;BME280;55481;48.764;8.936;2023-03-16T10:36:50;97100;;;9.6;77.5
68489;BME280;55481;48.764;8.936;2023-03-16T10:39:21;97090;;;9.9;77
68489;BME280;55481;48.764;8.936;2023-03-16T10:41:54;97090;;;9.7;77.5
68489;BME280;55481;48.764;8.936;2023-03-16T10:44:23;97080;;;9.5;78
68489;BME280;55481;48.764;8.936;2023-03-16T10:47:01;97090;;;9.6;77.5
68489;BME280;55481;48.764;8.936;2023-03-16T10:49:25;97080;;;9.6;78
68489;BME280;55481;48.764;8.936;2023-03-16T10:51:56;97070;;;10.3;77
68489;BME280;55481;48.764;8.936;2023-03-16T10:54:30;97080;;;10.4;76.5
68489;BME280;55481;48.764;8.936;2023-03-16T10:56:57;97080;;;10.7;76
68489;BME280;55481;48.764;8.936;2023-03-16T11:04:35;97080;;;10.6;77
68489;BME280;55481;48.764;8.936;2023-03-16T11:09:36;97070;;;10.8;76.5
68489;BME280;55481;48.764;8.936;2023-03-16T11:12:11;97070;;;11.1;75.5
68489;BME280;55481;48.764;8.936;2023-03-16T11:17:48;97060;;;10.8;76.5
68489;BME280;55481;48.764;8.936;2023-03-16T11:19:53;97060;;;11.1;76
68489;BME280;55481;48.764;8.936;2023-03-16T11:27:15;97070;;;11.1;76.5
68489;BME280;55481;48.764;8.936;2023-03-16T11:29:47;97060;;;11.7;75.5
68489;BME280;55481;48.764;8.936;2023-03-16T11:32:14;97060;;;11.4;76
68489;BME280;55481;48.764;8.936;2023-03-16T11:37:29;97040;;;12;75
68489;BME280;55481;48.764;8.936;2023-03-16T11:42:19;97050;;;11.8;75.5
68489;BME280;55481;48.764;8.936;2023-03-16T11:44:54;97040;;;12.9;76
68489;BME280;55481;48.764;8.936;2023-03-16T11:50:00;97010;;;17.6;63
68489;BME280;55481;48.764;8.936;2023-03-16T11:52:32;96990;;;18.6;61.5
68489;BME280;55481;48.764;8.936;2023-03-16T11:57:38;96990;;;17.6;65.5
68489;BME280;55481;48.764;8.936;2023-03-16T12:00:01;97000;;;16.1;69
68489;BME280;55481;48.764;8.936;2023-03-16T12:04:50;97000;;;14.6;74
68489;BME280;55481;48.764;8.936;2023-03-16T12:07:23;96990;;;15.1;71.5
68489;BME280;55481;48.764;8.936;2023-03-16T12:09:54;97000;;;15.1;72.5
68489;BME280;55481;48.764;8.936;2023-03-16T12:13:26;97000;;;15.5;71.5
68489;BME280;55481;48.764;8.936;2023-03-16T12:19:53;97000;;;16.1;70
68489;BME280;55481;48.764;8.936;2023-03-16T12:24:58;96990;;;15.5;71
68489;BME280;55481;48.764;8.936;2023-03-16T12:27:31;97000;;;15.2;73
68489;BME280;55481;48.764;8.936;2023-03-16T12:31:04;97000;;;14.7;73.5
68489;BME280;55481;48.764;8.936;2023-03-16T12:34:57;96990;;;15.3;72.5
68489;BME280;55481;48.764;8.936;2023-03-16T12:37:27;96980;;;14.7;74
68489;BME280;55481;48.764;8.936;2023-03-16T12:40:00;96980;;;14.3;75
68489;BME280;55481;48.764;8.936;2023-03-16T12:42:31;96970;;;16.6;71
68489;BME280;55481;48.764;8.936;2023-03-16T12:50:08;96940;;;19.8;63.5
68489;BME280;55481;48.764;8.936;2023-03-16T12:52:38;96940;;;20;64
68489;BME280;55481;48.764;8.936;2023-03-16T13:00:09;96940;;;19.8;66
68489;BME280;55481;48.764;8.936;2023-03-16T13:02:41;96950;;;19.1;67
68489;BME280;55481;48.764;8.936;2023-03-16T13:05:13;96960;;;18.9;69
68489;BME280;55481;48.764;8.936;2023-03-16T13:07:34;96950;;;18.3;69.5
68489;BME280;55481;48.764;8.936;2023-03-16T13:10:06;96940;;;18.9;68.5
68489;BME280;55481;48.764;8.936;2023-03-16T13:17:37;96940;;;18;71.5
68489;BME280;55481;48.764;8.936;2023-03-16T13:22:44;96940;;;20.7;65.5
68489;BME280;55481;48.764;8.936;2023-03-16T13:25:38;96930;;;20.9;64
68489;BME280;55481;48.764;8.936;2023-03-16T13:27:51;96940;;;18.5;70
68489;BME280;55481;48.764;8.936;2023-03-16T13:30:19;96940;;;17.9;71.5
68489;BME280;55481;48.764;8.936;2023-03-16T13:35:14;96950;;;15.7;76.5
68489;BME280;55481;48.764;8.936;2023-03-16T13:37:44;96930;;;17.7;72
68489;BME280;55481;48.764;8.936;2023-03-16T13:45:20;96910;;;20.7;63
68489;BME280;55481;48.764;8.936;2023-03-16T13:47:48;96910;;;19.3;66.5
68489;BME280;55481;48.764;8.936;2023-03-16T13:50:23;96920;;;18.4;71
68489;BME280;55481;48.764;8.936;2023-03-16T13:55:30;96910;;;19.6;67.5
68489;BME280;55481;48.764;8.936;2023-03-16T13:57:57;96910;;;20.2;65.5
68489;BME280;55481;48.764;8.936;2023-03-16T14:00:33;96900;;;20.3;65.5
68489;BME280;55481;48.764;8.936;2023-03-16T14:02:53;96900;;;20.1;65.5
68489;BME280;55481;48.764;8.936;2023-03-16T14:05:24;96900;;;20.6;64
68489;BME280;55481;48.764;8.936;2023-03-16T14:12:55;96880;;;21.4;62
68489;BME280;55481;48.764;8.936;2023-03-16T14:15:26;96890;;;19.6;67.5
68489;BME280;55481;48.764;8.936;2023-03-16T14:20:26;96870;;;21.3;61
68489;BME280;55481;48.764;8.936;2023-03-16T14:25:34;96880;;;17.2;72
68489;BME280;55481;48.764;8.936;2023-03-16T14:28:05;96870;;;18.1;70
68489;BME280;55481;48.764;8.936;2023-03-16T14:30:36;96860;;;19;67
68489;BME280;55481;48.764;8.936;2023-03-16T14:43:03;96870;;;16.5;71.5
68489;BME280;55481;48.764;8.936;2023-03-16T14:45:34;96860;;;18;67
68489;BME280;55481;48.764;8.936;2023-03-16T14:48:05;96860;;;18.5;64
68489;BME280;55481;48.764;8.936;2023-03-16T14:50:36;96860;;;18.1;65
68489;BME280;55481;48.764;8.936;2023-03-16T14:53:07;96870;;;16.7;68.5
68489;BME280;55481;48.764;8.936;2023-03-16T14:58:14;96870;;;15.3;71
68489;BME280;55481;48.764;8.936;2023-03-16T15:00:45;96870;;;15.4;70.5
68489;BME280;55481;48.764;8.936;2023-03-16T15:03:16;96870;;;16.2;68
68489;BME280;55481;48.764;8.936;2023-03-16T15:05:48;96860;;;16.7;65.5
68489;BME280;55481;48.764;8.936;2023-03-16T15:08:21;96860;;;16.4;66
68489;BME280;55481;48.764;8.936;2023-03-16T15:10:56;96850;;;16.5;65.5
68489;BME280;55481;48.764;8.936;2023-03-16T15:18:28;96850;;;15.1;69
68489;BME280;55481;48.764;8.936;2023-03-16T15:20:58;96840;;;16.1;66
68489;BME280;55481;48.764;8.936;2023-03-16T15:25:51;96850;;;15.5;67
68489;BME280;55481;48.764;8.936;2023-03-16T15:28:23;96850;;;15.2;66.5
68489;BME280;55481;48.764;8.936;2023-03-16T15:30:54;96860;;;14.3;69
68489;BME280;55481;48.764;8.936;2023-03-16T15:40:50;96860;;;13.8;68.5
68489;BME280;55481;48.764;8.936;2023-03-16T15:43:22;96870;;;13;70
68489;BME280;55481;48.764;8.936;2023-03-16T15:45:51;96860;;;12.7;70.5
68489;BME280;55481;48.764;8.936;2023-03-16T15:50:54;96860;;;12.7;70
68489;BME280;55481;48.764;8.936;2023-03-16T15:53:26;96860;;;12.5;70
68489;BME280;55481;48.764;8.936;2023-03-16T15:55:57;96860;;;12.5;70
68489;BME280;55481;48.764;8.936;2023-03-16T15:58:25;96860;;;12.5;69.5
68489;BME280;55481;48.764;8.936;2023-03-16T16:11:07;96870;;;11.9;70
68489;BME280;55481;48.764;8.936;2023-03-16T16:13:35;96870;;;11.9;70
68489;BME280;55481;48.764;8.936;2023-03-16T16:16:08;96870;;;11.8;70
68489;BME280;55481;48.764;8.936;2023-03-16T16:18:31;96870;;;11.8;70
68489;BME280;55481;48.764;8.936;2023-03-16T16:23:45;96870;;;11.7;70
68489;BME280;55481;48.764;8.936;2023-03-16T16:26:46;96870;;;11.6;70
68489;BME280;55481;48.764;8.936;2023-03-16T16:28:39;96870;;;11.5;70
68489;BME280;55481;48.764;8.936;2023-03-16T16:31:10;96870;;;11.4;70
68489;BME280;55481;48.764;8.936;2023-03-16T16:33:47;96860;;;11.3;70.5
68489;BME280;55481;48.764;8.936;2023-03-16T16:41:21;96860;;;11;70.5
68489;BME280;55481;48.764;8.936;2023-03-16T16:43:50;96860;;;11;70.5
68489;BME280;55481;48.764;8.936;2023-03-16T16:48:45;96850;;;10.7;70.5
68489;BME280;55481;48.764;8.936;2023-03-16T16:51:21;96850;;;10.6;71
68489;BME280;55481;48.764;8.936;2023-03-16T16:53:45;96850;;;10.5;71
68489;BME280;55481;48.764;8.936;2023-03-16T17:03:42;96850;;;10.3;71
68489;BME280;55481;48.764;8.936;2023-03-16T17:06:13;96840;;;10.2;71
68489;BME280;55481;48.764;8.936;2023-03-16T17:08:43;96850;;;10.1;71
68489;BME280;55481;48.764;8.936;2023-03-16T17:11:16;96850;;;10.1;71
68489;BME280;55481;48.764;8.936;2023-03-16T17:16:21;96850;;;9.9;71.5
68489;BME280;55481;48.764;8.936;2023-03-16T17:18:53;96850;;;9.7;71.5
68489;BME280;55481;48.764;8.936;2023-03-16T17:21:24;96860;;;9.7;71.5
68489;BME280;55481;48.764;8.936;2023-03-16T17:23:48;96860;;;9.7;71.5
68489;BME280;55481;48.764;8.936;2023-03-16T17:31:21;96850;;;9.4;71.5
68489;BME280;55481;48.764;8.936;2023-03-16T17:33:50;96850;;;9.4;71.5
68489;BME280;55481;48.764;8.936;2023-03-16T17:36:21;96850;;;9.3;71.5
68489;BME280;55481;48.764;8.936;2023-03-16T17:38:52;96850;;;9.2;71.5
68489;BME280;55481;48.764;8.936;2023-03-16T17:44:00;96850;;;9.1;71.5
68489;BME280;55481;48.764;8.936;2023-03-16T17:46:30;96850;;;9;71.5
68489;BME280;55481;48.764;8.936;2023-03-16T17:49:05;96840;;;8.9;71.5
68489;BME280;55481;48.764;8.936;2023-03-16T18:01:29;96850;;;8.6;71.5
68489;BME280;55481;48.764;8.936;2023-03-16T18:04:00;96850;;;8.5;72
68489;BME280;55481;48.764;8.936;2023-03-16T18:06:30;96850;;;8.4;72
68489;BME280;55481;48.764;8.936;2023-03-16T18:09:01;96840;;;8.4;72
68489;BME280;55481;48.764;8.936;2023-03-16T18:11:33;96850;;;8.4;72
68489;BME280;55481;48.764;8.936;2023-03-16T18:14:03;96840;;;8.3;72
68489;BME280;55481;48.764;8.936;2023-03-16T18:16:40;96840;;;8.3;71.5
68489;BME280;55481;48.764;8.936;2023-03-16T18:19:15;96840;;;8.3;71.5
68489;BME280;55481;48.764;8.936;2023-03-16T18:21:42;96840;;;8.3;71.5
68489;BME280;55481;48.764;8.936;2023-03-16T18:24:13;96850;;;8.2;71.5
68489;BME280;55481;48.764;8.936;2023-03-16T18:31:57;96840;;;8.1;71.5
68489;BME280;55481;48.764;8.936;2023-03-16T18:34:34;96850;;;8.1;71.5
68489;BME280;55481;48.764;8.936;2023-03-16T18:36:51;96850;;;8;71.5
68489;BME280;55481;48.764;8.936;2023-03-16T18:39:21;96840;;;8;71.5
68489;BME280;55481;48.764;8.936;2023-03-16T18:44:16;96840;;;7.9;71.5
68489;BME280;55481;48.764;8.936;2023-03-16T18:46:46;96840;;;7.9;71.5
68489;BME280;55481;48.764;8.936;2023-03-16T18:49:32;96830;;;7.9;71.5
68489;BME280;55481;48.764;8.936;2023-03-16T18:51:50;96840;;;7.9;71.5
68489;BME280;55481;48.764;8.936;2023-03-16T18:54:27;96840;;;7.9;71
68489;BME280;55481;48.764;8.936;2023-03-16T18:56:57;96840;;;7.9;71
68489;BME280;55481;48.764;8.936;2023-03-16T18:59:33;96840;;;7.9;71
68489;BME280;55481;48.764;8.936;2023-03-16T19:04:22;96830;;;7.8;71.5
68489;BME280;55481;48.764;8.936;2023-03-16T19:06:53;96830;;;7.8;71.5
68489;BME280;55481;48.764;8.936;2023-03-16T19:11:47;96830;;;7.7;71.5
68489;BME280;55481;48.764;8.936;2023-03-16T19:14:18;96830;;;7.8;71.5
68489;BME280;55481;48.764;8.936;2023-03-16T19:16:49;96820;;;7.8;71
68489;BME280;55481;48.764;8.936;2023-03-16T19:24:40;96820;;;8.2;70
68489;BME280;55481;48.764;8.936;2023-03-16T19:26:52;96820;;;8.2;70
68489;BME280;55481;48.764;8.936;2023-03-16T19:29:25;96820;;;8.2;70
68489;BME280;55481;48.764;8.936;2023-03-16T19:31:54;96820;;;8.2;70
68489;BME280;55481;48.764;8.936;2023-03-16T19:34:30;96820;;;8.2;70
68489;BME280;55481;48.764;8.936;2023-03-16T19:37:01;96830;;;8.1;70.5
68489;BME280;55481;48.764;8.936;2023-03-16T19:41:57;96840;;;8.1;70.5
68489;BME280;55481;48.764;8.936;2023-03-16T19:44:27;96830;;;8;70.5
68489;BME280;55481;48.764;8.936;2023-03-16T19:49:29;96820;;;7.9;71
68489;BME280;55481;48.764;8.936;2023-03-16T19:52:00;96820;;;7.9;70.5
68489;BME280;55481;48.764;8.936;2023-03-16T19:54:30;96820;;;7.9;71
68489;BME280;55481;48.764;8.936;2023-03-16T19:57:03;96820;;;7.9;70.5
68489;BME280;55481;48.764;8.936;2023-03-16T19:59:32;96820;;;7.9;70.5
68489;BME280;55481;48.764;8.936;2023-03-16T20:04:40;96820;;;7.6;71
68489;BME280;55481;48.764;8.936;2023-03-16T20:12:21;96820;;;7.5;71.5
68489;BME280;55481;48.764;8.936;2023-03-16T20:14:50;96820;;;7.4;71.5
68489;BME280;55481;48.764;8.936;2023-03-16T20:22:24;96820;;;7.5;71
68489;BME280;55481;48.764;8.936;2023-03-16T20:24:59;96820;;;7.4;71